Fort Wainwright, AK (99703)

2:46 PM AKDT on August 23, 2016 (GMT -0800)
200 Slater Dr. | | Change Station

Elev 450 ft 64.84 °N, 147.70 °W | Updated 3 seconds ago

Mostly Cloudy
Mostly Cloudy
71.8 °F
Feels Like 77 °F
N
0.9
Wind Variable Wind from NW
Gusts 2.0 mph

Today
High -- | Low -- °F
--% Chance of Precip.
Yesterday
High -- | Low -- °F
Precip. -- in
Pressure 29.94 in
Visibility 10.0 miles
Clouds Scattered Clouds 8000 ft
Mostly Cloudy 15000 ft
Heat Index 77 °F
Dew Point 53 °F
Humidity 51%
Rainfall 0.03 in
Snow Depth Not available.
6:04 AM 9:38 PM
Waning Gibbous, 64% visible
METAR PAFB 232158Z 32003KT 10SM SCT080 BKN150 20/08 A2993 RMK AO2A SLP137 T01960079
Pressure 29.94 in
Visibility 10.0 miles
Clouds Scattered Clouds 8000 ft
Mostly Cloudy 15000 ft
Heat Index 77 °F
Dew Point 53 °F
Humidity 51%
Rainfall 0.03 in
Snow Depth Not available.
6:04 AM 9:38 PM
Waning Gibbous, 64% visible
METAR PAFB 232158Z 32003KT 10SM SCT080 BKN150 20/08 A2993 RMK AO2A SLP137 T01960079

10-Day Weather Forecast

Almanac

Astronomy

Aug. 23, 2016 Rise Set
Actual Time
Civil Twilight
Nautical Twilight
Astronomical Twilight
Moon
Length of Visible Light
Length of Day
Tomorrow will be .
, % of the Moon is Illuminated

Today's Extremes

State Highs State Lows

Community

WunderPhotos

Upload Photos

1,934,488 photos uploaded!

WunderBlog® & News

Nearby

Air Quality

  Air Quality AQ Index Pollutant
Not available.

Snow Depth

Station Depth Elevation

Earthquake Activity

City Distance Mag. Time & Date
Minimum magnitude displayed is 2.5.

Coastal Water Temperatures

Place Temperature

Stations

Nearby Weather Stations

Station Location Temp. Windchill Dew Point Humidity Wind Precip. Elev Updated Type
                   

Watches & Warnings

There are currently no watches in effect.